Evergem / Belzele Heliport

EBEB · Oost-Vlaanderen, Flanders, 比利时

METAR的历史 EBEB · Evergem / Belzele Heliport

下面你可以看到过去几天的METARs。 选择年份以浏览从2007年开始的旧METAR。

2024年7月19日

时间 代码 天气 温度 能见度 天花板 METAR/SPECI
16:55
V
28 °C 10 km+ - 090° 090° 8 kt METAR EHFS 191455Z AUTO 09008KT 9999 NSC 28/16 Q1015
16:25
V
29 °C 10 km+ - 080° 080° 5 kt METAR EHFS 191425Z AUTO 08005KT 9999 NSC 29/16 Q1016
15:55
V
29 °C 10 km+ - 090° 090° 5 kt METAR EHFS 191355Z AUTO 09005KT 070V130 9999 NSC 29/17 Q1016
15:25
V
29 °C 10 km+ - 080° 080° 5 kt METAR EHFS 191325Z AUTO 08005KT 9999 NSC 29/16 Q1016
14:55
V
29 °C 10 km+ - 080° 080° 4 kt METAR EHFS 191255Z AUTO 08004KT 9999 NSC 29/16 Q1017
14:25
V
28 °C 10 km+ - 080° 080° 3 kt METAR EHFS 191225Z AUTO 08003KT 9999 NSC 28/16 Q1017
13:55
V
28 °C 10 km+ - 100° 100° 3 kt METAR EHFS 191155Z AUTO 10003KT 060V140 9999 NSC 28/17 Q1017
13:25
V
28 °C 10 km+ - 090° 090° 4 kt METAR EHFS 191125Z AUTO 09004KT 9999 NSC 28/17 Q1017
12:55
V
27 °C 10 km+ - 080° 080° 4 kt METAR EHFS 191055Z AUTO 08004KT 9999 NSC 27/17 Q1017
12:25
V
25 °C 10 km+ - 070° 070° 3 kt METAR EHFS 191025Z AUTO 07003KT 9999 NSC 25/18 Q1018
11:55
V
24 °C 10 km+ - 090° 090° 6 kt METAR EHFS 190955Z AUTO 09006KT 9999 NSC 24/18 Q1018
11:25
V
24 °C 10 km+ - 080° 080° 7 kt METAR EHFS 190925Z AUTO 08007KT 9999 NSC 24/19 Q1018
10:55
V
23 °C 10 km+ - 100° 100° 8 kt METAR EHFS 190855Z AUTO 10008KT 9999 NSC 23/18 Q1018
10:25
V
23 °C 10 km+ - 110° 110° 8 kt METAR EHFS 190825Z AUTO 11008KT 080V140 9999 NSC 23/18 Q1018
09:55
V
22 °C 10 km+ - 090° 090° 6 kt METAR EHFS 190755Z AUTO 09006KT 9999 NSC 22/18 Q1018
09:25
V
21 °C 10 km+ - 080° 080° 8 kt METAR EHFS 190725Z AUTO 08008KT 9999 NSC 21/17 Q1018
08:55
V
22 °C 10 km+ - 080° 080° 6 kt METAR EHFS 190655Z AUTO 08006KT 9999 NSC 22/17 Q1018
08:25
V
21 °C 10 km+ - 070° 070° 4 kt METAR EHFS 190625Z AUTO 07004KT 040V100 9999 NSC 21/18 Q1018
07:55
V
20 °C 10 km+ - 060° 060° 4 kt METAR EHFS 190555Z AUTO 06004KT 030V100 9999 NSC 20/17 Q1018
07:25
V
20 °C 10 km+ - 060° 060° 4 kt METAR EHFS 190525Z AUTO 06004KT 9999 NSC 20/17 Q1018
06:55
V
20 °C 10 km+ - 060° 060° 4 kt METAR EHFS 190455Z AUTO 06004KT 9999 -RA NSC 20/17 Q1018
06:25
V
20 °C 10 km+ - 050° 050° 4 kt METAR EHFS 190425Z AUTO 05004KT 9999 NSC 20/17 Q1019
05:55
V
20 °C 10 km+ - 050° 050° 4 kt METAR EHFS 190355Z AUTO 05004KT 9999 NSC 20/17 Q1019
05:25
V
20 °C 10 km+ - 050° 050° 4 kt METAR EHFS 190325Z AUTO 05004KT 020V080 9999 NSC 20/17 Q1019
04:55
V
20 °C 10 km+ - 070° 070° 4 kt METAR EHFS 190255Z AUTO 07004KT 040V110 9999 NSC 20/17 Q1019
04:25
V
20 °C 10 km+ - 070° 070° 4 kt METAR EHFS 190225Z AUTO 07004KT 9999 -RA NSC 20/17 Q1019
03:55
V
20 °C 10 km+ - 060° 060° 4 kt METAR EHFS 190155Z AUTO 06004KT 9999 NSC 20/17 Q1019
03:25
V
20 °C 10 km+ - 050° 050° 4 kt METAR EHFS 190125Z AUTO 05004KT 9999 NSC 20/17 Q1019
02:55
V
21 °C 10 km+ - 040° 040° 7 kt METAR EHFS 190055Z AUTO 04007KT 9999 NSC 21/17 Q1019
02:25
V
21 °C 10 km+ - 050° 050° 7 kt METAR EHFS 190025Z AUTO 05007KT 9999 NSC 21/17 Q1019
01:55
V
21 °C 10 km+ - 040° 040° 8 kt METAR EHFS 182355Z AUTO 04008KT 020V080 9999 NSC 21/17 Q1020
01:25
V
21 °C 10 km+ - 050° 050° 7 kt METAR EHFS 182325Z AUTO 05007KT 9999 NSC 21/17 Q1020
00:55
V
20 °C 10 km+ - 040° 040° 7 kt METAR EHFS 182255Z AUTO 04007KT 9999 NSC 20/16 Q1020
00:25
V
20 °C 10 km+ - 040° 040° 7 kt METAR EHFS 182225Z AUTO 04007KT 9999 NSC 20/16 Q1020

2024年7月18日

时间 代码 天气 温度 能见度 天花板 METAR/SPECI
23:55
V
20 °C 10 km+ - 030° 030° 8 kt METAR EHFS 182155Z AUTO 03008KT 9999 NSC 20/16 Q1020
23:25
V
20 °C 10 km+ - 030° 030° 8 kt METAR EHFS 182125Z AUTO 03008KT 9999 NSC 20/16 Q1020
22:55
V
21 °C 10 km+ - 020° 020° 8 kt METAR EHFS 182055Z AUTO 02008KT 9999 NSC 21/16 Q1020
22:25
V
21 °C 10 km+ - 020° 020° 8 kt METAR EHFS 182025Z AUTO 02008KT 9999 NSC 21/16 Q1020
21:55
V
22 °C 10 km+ - 020° 020° 8 kt METAR EHFS 181955Z AUTO 02008KT 9999 NSC 22/16 Q1020
21:25
V
22 °C 10 km+ - 010° 010° 8 kt METAR EHFS 181925Z AUTO 01008KT 9999 NSC 22/16 Q1020
20:55
V
23 °C 10 km+ - 020° 020° 9 kt METAR EHFS 181855Z AUTO 02009KT 350V050 9999 NSC 23/15 Q1020
20:25
V
23 °C 10 km+ - 010° 010° 10 kt METAR EHFS 181825Z AUTO 01010KT 9999 NSC 23/15 Q1020
19:55
V
24 °C 10 km+ - 020° 020° 10 kt METAR EHFS 181755Z AUTO 02010KT 9999 NSC 24/16 Q1020
19:25
V
25 °C 10 km+ - 360° 360° 9 kt METAR EHFS 181725Z AUTO 36009KT 330V040 9999 NSC 25/17 Q1020
18:55
V
25 °C 10 km+ - 010° 010° 9 kt METAR EHFS 181655Z AUTO 01009KT 310V050 9999 NSC 25/16 Q1020
18:25
V
25 °C 10 km+ - 360° 360° 10 kt METAR EHFS 181625Z AUTO 36010KT 330V030 9999 NSC 25/16 Q1020
17:55
V
26 °C 10 km+ - 010° 010° 9 kt METAR EHFS 181555Z AUTO 01009KT 330V050 9999 NSC 26/16 Q1020
17:25
V
26 °C 10 km+ - 020° 020° 6 kt METAR EHFS 181525Z AUTO 02006KT 320V080 9999 NSC 26/16 Q1020
16:55
V
27 °C 10 km+ - Var Var 2 kt METAR EHFS 181455Z AUTO VRB02KT 9999 NSC 27/15 Q1020
16:25
V
27 °C 10 km+ - Var Var 2 kt METAR EHFS 181425Z AUTO VRB02KT 9999 NSC 27/15 Q1021
15:55
V
27 °C 10 km+ - Var Var 2 kt METAR EHFS 181355Z AUTO VRB02KT 9999 NSC 27/15 Q1021
15:25
V
27 °C 10 km+ - 100° 100° 3 kt METAR EHFS 181325Z AUTO 10003KT 060V140 9999 NSC 27/15 Q1021
14:55
V
27 °C 10 km+ - 090° 090° 4 kt METAR EHFS 181255Z AUTO 09004KT 9999 NSC 27/16 Q1021
14:25
V
26 °C 10 km+ - 090° 090° 3 kt METAR EHFS 181225Z AUTO 09003KT 060V140 9999 NSC 26/16 Q1021
13:55
V
26 °C 10 km+ - 090° 090° 4 kt METAR EHFS 181155Z AUTO 09004KT 9999 NSC 26/16 Q1021
13:25
V
25 °C 10 km+ - 100° 100° 3 kt METAR EHFS 181125Z AUTO 10003KT 070V140 9999 NSC 25/15 Q1021
12:55
V
25 °C 10 km+ - 100° 100° 3 kt METAR EHFS 181055Z AUTO 10003KT 060V140 9999 NSC 25/17 Q1021
12:25
V
24 °C 10 km+ - 110° 110° 3 kt METAR EHFS 181025Z AUTO 11003KT 9999 NSC 24/17 Q1022
11:55
V
23 °C 10 km+ - 090° 090° 4 kt METAR EHFS 180955Z AUTO 09004KT 060V140 9999 NSC 23/16 Q1022
11:25
V
22 °C 10 km+ - 100° 100° 4 kt METAR EHFS 180925Z AUTO 10004KT 060V140 9999 NSC 22/16 Q1022
10:55
V
22 °C 10 km+ - 100° 100° 5 kt METAR EHFS 180855Z AUTO 10005KT 060V130 9999 NSC 22/17 Q1022
10:25
V
21 °C 10 km+ - 100° 100° 3 kt METAR EHFS 180825Z AUTO 10003KT 060V150 9999 NSC 21/17 Q1022
09:55
V
21 °C 10 km+ - 100° 100° 5 kt METAR EHFS 180755Z AUTO 10005KT 070V130 9999 NSC 21/16 Q1022
09:25
V
20 °C 10 km+ - 090° 090° 6 kt METAR EHFS 180725Z AUTO 09006KT 9999 NSC 20/15 Q1022
08:55
V
19 °C 10 km+ - 080° 080° 5 kt METAR EHFS 180655Z AUTO 08005KT 9999 NSC 19/14 Q1022
08:25
V
18 °C 8 km - 060° 060° 3 kt METAR EHFS 180625Z AUTO 06003KT 8000 NSC 18/16 Q1022
07:55
M
17 °C 7 km - 060° 060° 3 kt METAR EHFS 180555Z AUTO 06003KT 7000 NSC 17/15 Q1022
07:25
M
16 °C 7 km - 070° 070° 3 kt METAR EHFS 180525Z AUTO 07003KT 7000 NSC 16/15 Q1022
06:55
M
16 °C 7 km - 090° 090° 5 kt METAR EHFS 180455Z AUTO 09005KT 7000 NSC 16/15 Q1022
06:25
M
16 °C 5 km - 070° 070° 4 kt METAR EHFS 180425Z AUTO 07004KT 030V100 5000 BR NSC 16/15 Q1022
05:55
I
16 °C 4,7 km - 060° 060° 4 kt METAR EHFS 180355Z AUTO 06004KT 4700 BR NSC 16/15 Q1021
05:25
M
16 °C 6 km - 040° 040° 4 kt METAR EHFS 180325Z AUTO 04004KT 6000 NSC 16/15 Q1022
04:55
M
15 °C 7 km - 030° 030° 5 kt METAR EHFS 180255Z AUTO 03005KT 7000 NSC 15/14 Q1022
04:25
V
16 °C 10 km+ - 020° 020° 5 kt METAR EHFS 180225Z AUTO 02005KT 9999 NSC 16/14 Q1022
03:55
V
15 °C 10 km+ - 040° 040° 4 kt METAR EHFS 180155Z AUTO 04004KT 350V070 9999 NSC 15/14 Q1022
03:25
V
16 °C 10 km+ - 020° 020° 4 kt METAR EHFS 180125Z AUTO 02004KT 340V050 9999 NSC 16/14 Q1022
02:55
V
16 °C 10 km+ - 020° 020° 5 kt METAR EHFS 180055Z AUTO 02005KT 9999 NSC 16/14 Q1022
02:25
V
16 °C 10 km+ - 020° 020° 5 kt METAR EHFS 180025Z AUTO 02005KT 9999 NSC 16/13 Q1022
01:55
V
16 °C 10 km+ - 010° 010° 4 kt METAR EHFS 172355Z AUTO 01004KT 9999 NSC 16/13 Q1022
01:25
V
17 °C 10 km+ - Var Var 2 kt METAR EHFS 172325Z AUTO VRB02KT 9999 NSC 17/13 Q1022
00:55
V
17 °C 10 km+ - 040° 040° 3 kt METAR EHFS 172255Z AUTO 04003KT 360V060 9999 NSC 17/14 Q1022
00:25
V
17 °C 10 km+ - 070° 070° 3 kt METAR EHFS 172225Z AUTO 07003KT 9999 NSC 17/14 Q1022

2024年7月17日

时间 代码 天气 温度 能见度 天花板 METAR/SPECI
23:55
V
16 °C 10 km+ - 050° 050° 4 kt METAR EHFS 172155Z AUTO 05004KT 9999 NSC 16/13 Q1022
23:25
V
17 °C 10 km+ - 040° 040° 5 kt METAR EHFS 172125Z AUTO 04005KT 9999 NSC 17/13 Q1022
22:55
V
17 °C 10 km+ - 030° 030° 5 kt METAR EHFS 172055Z AUTO 03005KT 9999 NSC 17/13 Q1022
22:25
V
18 °C 10 km+ - 020° 020° 4 kt METAR EHFS 172025Z AUTO 02004KT 9999 NSC 18/13 Q1022
21:55
V
18 °C 10 km+ - 050° 050° 4 kt METAR EHFS 171955Z AUTO 05004KT 9999 NSC 18/14 Q1022
21:25
V
19 °C 10 km+ - 030° 030° 4 kt METAR EHFS 171925Z AUTO 03004KT 320V050 9999 NSC 19/14 Q1022
20:55
V
19 °C 10 km+ - 340° 340° 3 kt METAR EHFS 171855Z AUTO 34003KT 310V010 9999 NSC 19/13 Q1022
20:25
V
20 °C 10 km+ - 320° 320° 4 kt METAR EHFS 171825Z AUTO 32004KT 270V360 9999 NSC 20/14 Q1022
19:55
V
20 °C 10 km+ - 330° 330° 5 kt METAR EHFS 171755Z AUTO 33005KT 270V020 9999 NSC 20/13 Q1022
19:25
V
20 °C 10 km+ - 310° 310° 7 kt METAR EHFS 171725Z AUTO 31007KT 260V340 9999 NSC 20/14 Q1022
18:55
V
21 °C 10 km+ - 320° 320° 8 kt METAR EHFS 171655Z AUTO 32008KT 280V350 9999 NSC 21/13 Q1021
18:25
V
22 °C 10 km+ - 290° 290° 8 kt METAR EHFS 171625Z AUTO 29008KT 250V320 9999 NCD 22/14 Q1021
17:55
V
21 °C 10 km+ - 280° 280° 8 kt METAR EHFS 171555Z AUTO 28008KT 250V310 9999 NSC 21/14 Q1021
17:25
V
21 °C 10 km+ - 280° 280° 10 kt METAR EHFS 171525Z AUTO 28010KT 250V310 9999 NSC 21/13 Q1021
16:55
V
21 °C 10 km+ - 270° 270° 12 kt METAR EHFS 171455Z AUTO 27012KT 250V310 9999 NCD 21/14 Q1021
16:25
V
21 °C 10 km+ - 290° 290° 12 kt METAR EHFS 171425Z AUTO 29012KT 260V330 9999 NCD 21/15 Q1021
15:55
V
21 °C 10 km+ - 290° 290° 9 kt METAR EHFS 171355Z AUTO 29009KT 250V320 9999 NCD 21/15 Q1021
15:25
V
20 °C 10 km+ - 280° 280° 12 kt METAR EHFS 171325Z AUTO 28012KT 240V330 9999 NCD 20/14 Q1021
14:55
V
20 °C 10 km+ - 280° 280° 13 kt METAR EHFS 171255Z AUTO 28013KT 250V310 9999 NCD 20/14 Q1021
14:25
V
20 °C 10 km+ - 270° 270° 10 kt METAR EHFS 171225Z AUTO 27010KT 240V320 9999 NCD 20/14 Q1021
13:55
V
19 °C 10 km+ - 260° 260° 12 kt METAR EHFS 171155Z AUTO 26012KT 230V310 9999 NCD 19/14 Q1021
12:55
V
19 °C 10 km+ - 260° 260° 14 kt METAR EHFS 171055Z AUTO 26014KT 240V310 9999 NCD 19/15 Q1021
12:25
M
19 °C 10 km+ 2.900 ft 270° 270° 12 kt METAR EHFS 171025Z AUTO 27012KT 240V310 9999 BKN029/// OVC032/// 19/15 Q1021
11:55
V
19 °C 10 km+ 3.500 ft 260° 260° 12 kt METAR EHFS 170955Z AUTO 26012KT 230V300 9999 SCT031/// BKN035/// 19/15 Q1020
11:25
V
19 °C 10 km+ 3.200 ft 260° 260° 11 kt METAR EHFS 170925Z AUTO 26011KT 9999 BKN032/// BKN036/// 19/15 Q1020
10:55
V
19 °C 10 km+ 4.200 ft 260° 260° 11 kt METAR EHFS 170855Z AUTO 26011KT 230V300 9999 SCT036/// BKN042/// 19/15 Q1020
10:25
V
19 °C 10 km+ - 250° 250° 9 kt METAR EHFS 170825Z AUTO 25009KT 9999 NCD 19/15 Q1020
09:55
V
19 °C 10 km+ - 230° 230° 11 kt METAR EHFS 170755Z AUTO 23011KT 9999 NCD 19/15 Q1019
09:25
V
18 °C 10 km+ - 240° 240° 8 kt METAR EHFS 170725Z AUTO 24008KT 9999 NCD 18/15 Q1019
08:55
V
18 °C 10 km+ - 230° 230° 7 kt METAR EHFS 170655Z AUTO 23007KT 9999 NCD 18/16 Q1019
08:25
V
17 °C 9 km - 220° 220° 8 kt METAR EHFS 170625Z AUTO 22008KT 9000 NCD 17/16 Q1018
07:55
V
17 °C 8 km - 210° 210° 8 kt METAR EHFS 170555Z AUTO 21008KT 8000 NCD 17/16 Q1018
报告变更